Home > Products > Valid Products > TAF

000
FTUS43 KFGF 130521
TAFGFK
TAF
KGFK 130521Z 1306/1406 VRB04KT P6SM FEW250
     FM131500 16009KT P6SM SCT250
     FM131800 16013G18KT P6SM BKN200
     FM132100 15017G26KT P6SM BKN080
     FM140300 15018G28KT 3SM -SN BKN025=



000
FTUS43 KFGF 130521
TAFFAR
TAF
KFAR 130521Z 1306/1406 VRB04KT P6SM FEW250
     FM131500 14008KT P6SM SCT250
     FM131800 14013G18KT P6SM BKN200
     FM132100 14017G26KT P6SM BKN080
     FM140300 15018G28KT 3SM -SN BKN025=



000
FTUS43 KFGF 122330
TAFGFK
TAF
KGFK 122330Z 1300/1324 33010KT P6SM SKC
     FM130100 VRB04KT P6SM SKC
     FM131500 16008KT P6SM SCT250
     FM131800 16013G18KT P6SM BKN120
     FM132100 15017G26KT P6SM BKN080=



000
FTUS43 KFGF 122330
TAFFAR
TAF
KFAR 122330Z 1300/1324 34011KT P6SM SKC
     FM130100 VRB05KT P6SM SKC
     FM131500 14008KT P6SM SCT250
     FM131800 14013G18KT P6SM BKN120
     FM132100 14017G26KT P6SM BKN080=



000
FTUS43 KFGF 122330
TAFGFK
TAF
KGFK 122330Z 1300/1324 33010KT P6SM SKC
     FM130100 VRB04KT P6SM SKC
     FM131500 16008KT P6SM SCT250
     FM131800 16013G18KT P6SM BKN120
     FM132100 15017G26KT P6SM BKN080=



000
FTUS43 KFGF 122330
TAFFAR
TAF
KFAR 122330Z 1300/1324 34011KT P6SM SKC
     FM130100 VRB05KT P6SM SKC
     FM131500 14008KT P6SM SCT250
     FM131800 14013G18KT P6SM BKN120
     FM132100 14017G26KT P6SM BKN080=



000
FTUS43 KFGF 121735 AAA
TAFGFK
TAF AMD
KGFK 121735Z 1218/1318 35014KT P6SM SCT012
     FM130000 35004KT P6SM SKC
     FM131000 20004KT P6SM SKC
     FM131500 16008KT P6SM SCT250=



000
FTUS43 KFGF 121735 AAD
TAFFAR
TAF AMD
KFAR 121735Z 1218/1318 35014KT P6SM SCT014
     FM130000 34004KT P6SM SKC
     FM131000 15004KT P6SM SCT250=



000
FTUS43 KFGF 121609 AAC
TAFFAR
TAF AMD
KFAR 121609Z 1216/1312 35018KT P6SM SCT012
     FM130000 33006KT P6SM SKC
     FM130400 VRB03KT P6SM SCT250=



000
FTUS43 KFGF 121609 AAC
TAFFAR
TAF AMD
KFAR 121609Z 1216/1312 35018KT P6SM SCT012
     FM130000 33006KT P6SM SKC
     FM130400 VRB03KT P6SM SCT250=



000
FTUS43 KFGF 121528 AAB
TAFFAR
TAF AMD
KFAR 121528Z 1215/1312 35018KT P6SM BKN012
     FM121700 35015KT P6SM SCT012
     FM130000 VRB06KT P6SM SKC=



000
FTUS43 KFGF 121528 AAB
TAFFAR
TAF AMD
KFAR 121528Z 1215/1312 35018KT P6SM BKN012
     FM121700 35015KT P6SM SCT012
     FM130000 VRB06KT P6SM SKC=



000
FTUS43 KFGF 121458 AAA
TAFFAR
TAF AMD
KFAR 121458Z 1215/1312 35018KT P6SM SCT012
     FM121900 35015KT P6SM SKC
     FM130000 VRB06KT P6SM SKC=



000
FTUS43 KFGF 121120
TAFFAR
TAF
KFAR 121120Z 1212/1312 34012KT P6SM FEW200
     FM130000 VRB06KT P6SM FEW250=



000
FTUS43 KFGF 121120
TAFGFK
TAF
KGFK 121120Z 1212/1312 34014KT P6SM FEW200
     FM130000 VRB06KT P6SM FEW250=



000
FTUS43 KFGF 121120
TAFGFK
TAF
KGFK 121120Z 1212/1312 34014KT P6SM FEW200
     FM130000 VRB06KT P6SM FEW250=



000
FTUS43 KFGF 121120
TAFFAR
TAF
KFAR 121120Z 1212/1312 34012KT P6SM FEW200
     FM130000 VRB06KT P6SM FEW250=



000
FTUS43 KFGF 120520
TAFGFK
TAF
KGFK 120520Z 1206/1306 34009KT P6SM SCT030
     FM121100 35013G18KT P6SM FEW200
     FM122200 35012KT P6SM FEW200=



000
FTUS43 KFGF 120520
TAFFAR
TAF
KFAR 120520Z 1206/1306 34008KT P6SM BKN035
     FM120800 34010KT P6SM SCT035
     FM121300 35013G18KT P6SM FEW200
     FM122200 35012KT P6SM FEW200=



000
FTUS43 KFGF 120457 AAB
TAFFAR
TAF AMD
KFAR 120457Z 1205/1224 34008KT P6SM BKN040
     FM120800 34010KT P6SM SCT050
     FM121100 35013G18KT P6SM FEW200
     FM122200 35012KT P6SM FEW200=



000
FTUS43 KFGF 120457 AAB
TAFFAR
TAF AMD
KFAR 120457Z 1205/1224 34008KT P6SM BKN040
     FM120800 34010KT P6SM SCT050
     FM121100 35013G18KT P6SM FEW200
     FM122200 35012KT P6SM FEW200=



000
FTUS43 KFGF 120345 AAC
TAFGFK
TAF AMD
KGFK 120345Z 1204/1224 36008KT P6SM BKN035
     FM120430 34009KT P6SM SCT050
     FM120900 35013G18KT P6SM FEW200
     FM122200 35012KT P6SM FEW200=



000
FTUS43 KFGF 120345 AAC
TAFGFK
TAF AMD
KGFK 120345Z 1204/1224 36008KT P6SM BKN035
     FM120430 34009KT P6SM SCT050
     FM120900 35013G18KT P6SM FEW200
     FM122200 35012KT P6SM FEW200=



000
FTUS43 KFGF 120210 AAB
TAFGFK
TAF AMD
KGFK 120210Z 1202/1224 36008KT P6SM BKN040
     FM120400 34010KT P6SM SCT050
     FM120900 35013G18KT P6SM FEW200
     FM122200 35012KT P6SM FEW200=



000
FTUS43 KFGF 120207 AAA
TAFFAR
TAF AMD
KFAR 120207Z 1202/1224 33006KT P6SM BKN040
     FM120600 34010KT P6SM SCT050
     FM121100 35013G18KT P6SM FEW200
     FM122200 35012KT P6SM FEW200=



000
FTUS43 KFGF 120139 AAA
TAFGFK
TAF AMD
KGFK 120139Z 1202/1224 36008KT P6SM BKN040
     FM120300 34010KT P6SM SCT050
     FM120900 35013G18KT P6SM FEW200
     FM122200 35012KT P6SM FEW200=



000
FTUS43 KFGF 120139 AAA
TAFGFK
TAF AMD
KGFK 120139Z 1202/1224 36008KT P6SM BKN040
     FM120300 34010KT P6SM SCT050
     FM120900 35013G18KT P6SM FEW200
     FM122200 35012KT P6SM FEW200=



000
FTUS43 KFGF 112320
TAFGFK
TAF
KGFK 112320Z 1200/1224 34007KT P6SM BKN040
      TEMPO 1200/1202 BKN022
     FM120300 34010KT P6SM SCT050
     FM120900 35013G18KT P6SM FEW200
     FM122200 35012KT P6SM FEW200=



000
FTUS43 KFGF 112320
TAFGFK
TAF
KGFK 112320Z 1200/1224 34007KT P6SM BKN040
      TEMPO 1200/1202 BKN022
     FM120300 34010KT P6SM SCT050
     FM120900 35013G18KT P6SM FEW200
     FM122200 35012KT P6SM FEW200=



000
FTUS43 KFGF 112320
TAFFAR
TAF
KFAR 112320Z 1200/1224 33006KT P6SM BKN040
      TEMPO 1200/1203 BKN022
     FM120600 34010KT P6SM SCT050
     FM121100 35013G18KT P6SM FEW200
     FM122200 35012KT P6SM FEW200=



000
FTUS43 KFGF 112320
TAFFAR
TAF
KFAR 112320Z 1200/1224 33006KT P6SM BKN040
      TEMPO 1200/1203 BKN022
     FM120600 34010KT P6SM SCT050
     FM121100 35013G18KT P6SM FEW200
     FM122200 35012KT P6SM FEW200=



000
FTUS43 KFGF 112226 AAB
TAFFAR
TAF AMD
KFAR 112226Z 1122/1218 33004KT P6SM BKN025
     FM120300 35007KT P6SM BKN040
     FM120500 34010KT P6SM BKN250=



000
FTUS43 KFGF 112226 AAB
TAFFAR
TAF AMD
KFAR 112226Z 1122/1218 33004KT P6SM BKN025
     FM120300 35007KT P6SM BKN040
     FM120500 34010KT P6SM BKN250=



000
FTUS43 KFGF 112225 AAC
TAFGFK
TAF AMD
KGFK 112225Z 1122/1218 34007KT P6SM BKN035
      TEMPO 1122/1123 BKN026
     FM120100 34008KT P6SM BKN050
     FM120300 33010KT P6SM BKN250=



000
FTUS43 KFGF 112225 AAC
TAFGFK
TAF AMD
KGFK 112225Z 1122/1218 34007KT P6SM BKN035
      TEMPO 1122/1123 BKN026
     FM120100 34008KT P6SM BKN050
     FM120300 33010KT P6SM BKN250=



000
FTUS43 KFGF 112156 AAB
TAFGFK
TAF AMD
KGFK 112156Z 1122/1218 23007KT P6SM -SN BKN035
     FM120100 34008KT P6SM BKN050
     FM120300 33010KT P6SM BKN250=



000
FTUS43 KFGF 112155 AAA
TAFFAR
TAF AMD
KFAR 112155Z 1122/1218 13003KT P6SM BKN025
     FM120300 35007KT P6SM BKN040
     FM120500 34010KT P6SM BKN250=



000
FTUS43 KFGF 112155 AAA
TAFFAR
TAF AMD
KFAR 112155Z 1122/1218 13003KT P6SM BKN025
     FM120300 35007KT P6SM BKN040
     FM120500 34010KT P6SM BKN250=



000
FTUS43 KFGF 111928 AAA
TAFGFK
TAF AMD
KGFK 111928Z 1119/1218 23007KT P6SM BKN035
     FM120100 34008KT P6SM BKN050
     FM120300 33010KT P6SM BKN250=



000
FTUS43 KFGF 111720
TAFGFK
TAF
KGFK 111720Z 1118/1218 18005KT P6SM BKN050
     FM111900 33007KT P6SM BKN025
     FM120100 34008KT P6SM BKN050
     FM120300 33010KT P6SM BKN250=



000
FTUS43 KFGF 111720
TAFFAR
TAF
KFAR 111720Z 1118/1218 13003KT P6SM BKN040
     FM120300 35007KT P6SM OVC050
     FM120500 34010KT P6SM BKN250=



000
FTUS43 KFGF 111720
TAFGFK
TAF
KGFK 111720Z 1118/1218 18005KT P6SM BKN050
     FM111900 33007KT P6SM BKN025
     FM120100 34008KT P6SM BKN050
     FM120300 33010KT P6SM BKN250=



000
FTUS43 KFGF 111720
TAFFAR
TAF
KFAR 111720Z 1118/1218 13003KT P6SM BKN040
     FM120300 35007KT P6SM OVC050
     FM120500 34010KT P6SM BKN250=



000
FTUS43 KFGF 111120
TAFGFK
TAF
KGFK 111120Z 1112/1212 VRB04KT P6SM BKN050
     FM111900 34007KT P6SM BKN025
     FM120200 33011KT P6SM BKN200=



000
FTUS43 KFGF 111120
TAFFAR
TAF
KFAR 111120Z 1112/1212 VRB04KT P6SM BKN050
     FM111800 32006KT P6SM BKN025
     FM120400 34011KT P6SM BKN200=



000
FTUS43 KFGF 110520
TAFGFK
TAF
KGFK 110520Z 1106/1206 VRB04KT P6SM SCT080
     FM110900 VRB04KT P6SM BKN080
     FM120000 35008KT P6SM BKN200=



000
FTUS43 KFGF 110520
TAFGFK
TAF
KGFK 110520Z 1106/1206 VRB04KT P6SM SCT080
     FM110900 VRB04KT P6SM BKN080
     FM120000 35008KT P6SM BKN200=



000
FTUS43 KFGF 110520
TAFFAR
TAF
KFAR 110520Z 1106/1206 VRB04KT P6SM SCT070
     FM111100 VRB04KT P6SM BKN070
     FM120400 34008KT P6SM BKN200=



000
FTUS43 KFGF 110520
TAFFAR
TAF
KFAR 110520Z 1106/1206 VRB04KT P6SM SCT070
     FM111100 VRB04KT P6SM BKN070
     FM120400 34008KT P6SM BKN200=



000
FTUS43 KFGF 110436 AAA
TAFFAR
TAF AMD
KFAR 110436Z 1105/1124 VRB05KT P6SM OVC070
     FM110600 VRB04KT P6SM SCT070
     FM111100 VRB04KT P6SM BKN070
     FM111800 VRB05KT P6SM OVC040=



000
FTUS43 KFGF 110436 AAA
TAFFAR
TAF AMD
KFAR 110436Z 1105/1124 VRB05KT P6SM OVC070
     FM110600 VRB04KT P6SM SCT070
     FM111100 VRB04KT P6SM BKN070
     FM111800 VRB05KT P6SM OVC040=



000
FTUS43 KFGF 110433 AAA
TAFGFK
TAF AMD
KGFK 110433Z 1105/1124 VRB04KT P6SM SCT080
     FM110900 VRB04KT P6SM BKN080
     FM111800 VRB05KT P6SM OVC040=



000
FTUS43 KFGF 102330
TAFFAR
TAF
KFAR 102330Z 1100/1124 VRB05KT P6SM OVC070
     FM111800 VRB05KT P6SM OVC040=



000
FTUS43 KFGF 102330
TAFGFK
TAF
KGFK 102330Z 1100/1124 VRB05KT P6SM OVC080
     FM111800 VRB05KT P6SM OVC040=



000
FTUS43 KFGF 102330
TAFFAR
TAF
KFAR 102330Z 1100/1124 VRB05KT P6SM OVC070
     FM111800 VRB05KT P6SM OVC040=



000
FTUS43 KFGF 102330
TAFGFK
TAF
KGFK 102330Z 1100/1124 VRB05KT P6SM OVC080
     FM111800 VRB05KT P6SM OVC040=



000
FTUS43 KFGF 102216 AAA
TAFFAR
TAF AMD
KFAR 102216Z 1022/1118 01008KT P6SM OVC080
     FM110000 VRB05KT P6SM OVC070=



000
FTUS43 KFGF 102216 AAA
TAFFAR
TAF AMD
KFAR 102216Z 1022/1118 01008KT P6SM OVC080
     FM110000 VRB05KT P6SM OVC070=



000
FTUS43 KFGF 102215 AAA
TAFGFK
TAF AMD
KGFK 102215Z 1022/1118 03008KT P6SM OVC080
     FM110000 VRB05KT P6SM BKN070=



000
FTUS43 KFGF 102215 AAA
TAFGFK
TAF AMD
KGFK 102215Z 1022/1118 03008KT P6SM OVC080
     FM110000 VRB05KT P6SM BKN070=



000
FTUS43 KFGF 101720
TAFFAR
TAF
KFAR 101720Z 1018/1118 11007KT P6SM BKN040
     FM110000 VRB05KT P6SM OVC035=



000
FTUS43 KFGF 101720
TAFGFK
TAF
KGFK 101720Z 1018/1118 11008KT P6SM BKN060
     FM110000 VRB05KT P6SM BKN050=



000
FTUS43 KFGF 101513 AAB
TAFFAR
TAF AMD
KFAR 101513Z 1015/1112 09008KT 2SM -SN OVC030
     FM101600 10008KT P6SM BKN050=



000
FTUS43 KFGF 101303 AAA
TAFGFK
TAF AMD
KGFK 101303Z 1013/1112 12008KT 4SM -SN OVC050
     FM101400 12008KT P6SM BKN060
     FM102100 VRB05KT P6SM BKN050=



000
FTUS43 KFGF 101303 AAA
TAFGFK
TAF AMD
KGFK 101303Z 1013/1112 12008KT 4SM -SN OVC050
     FM101400 12008KT P6SM BKN060
     FM102100 VRB05KT P6SM BKN050=



000
FTUS43 KFGF 101302 AAA
TAFFAR
TAF AMD
KFAR 101302Z 1013/1112 09008KT 2SM -SN OVC035
     FM101400 10008KT 5SM -SN OVC035
     FM101500 VRB06KT P6SM BKN050=



000
FTUS43 KFGF 101302 AAA
TAFFAR
TAF AMD
KFAR 101302Z 1013/1112 09008KT 2SM -SN OVC035
     FM101400 10008KT 5SM -SN OVC035
     FM101500 VRB06KT P6SM BKN050=



000
FTUS43 KFGF 101120
TAFFAR
TAF
KFAR 101120Z 1012/1112 VRB06KT P6SM BKN050=



000
FTUS43 KFGF 101120
TAFGFK
TAF
KGFK 101120Z 1012/1112 12008KT P6SM BKN060
     FM102100 VRB05KT P6SM BKN050=



    US Dept of Commerce
    National Oceanic and Atmospheric Administration
    National Weather Service
    1325 East West Highway
    Silver Spring, MD 20910
    Page Author: NWS Internet Services Team
Disclaimer
Information Quality
Credits
Glossary
Privacy Policy
Freedom of Information Act (FOIA)
About Us
Career Opportunities